Time;durP1;ratioP1;P1;durP2;ratioP2;P2;SDS_P1;SDS_P2;PMS_P1;PMS_P2;Temp;Humidity;BMP_temperature;BMP_pressure;BME280_temperature;BME280_humidity;BME280_pressure;Samples;Min_cycle;Max_cycle;Signal;HPM_P1;HPM_P2
2022/08/05 00:00:21;;;;;;;23.27;8.47;;;;;;;17.43;93.76;100357.66;4827661;29;20279;-50
2022/08/05 00:02:56;;;;;;;28.97;9.03;;;;;;;17.50;93.86;100359.09;4831507;29;20291;-48
2022/08/05 00:05:27;;;;;;;25.80;10.10;;;;;;;17.51;93.70;100355.53;4831263;29;20287;-52
2022/08/05 00:08:18;;;;;;;29.33;9.03;;;;;;;17.47;93.59;100343.38;4830865;29;20296;-56
2022/08/05 00:11:07;;;;;;;22.53;9.43;;;;;;;17.54;93.78;100349.25;4831841;29;20298;-50
2022/08/05 00:13:52;;;;;;;23.67;9.13;;;;;;;17.57;93.54;100350.00;4831626;29;20315;-52
2022/08/05 00:16:24;;;;;;;29.20;9.00;;;;;;;17.64;93.37;100348.78;4831431;29;20328;-55
2022/08/05 00:19:17;;;;;;;32.80;8.90;;;;;;;17.78;93.15;100348.16;4830111;29;20291;-51
2022/08/05 00:21:51;;;;;;;21.67;7.77;;;;;;;17.94;93.10;100337.78;4827408;29;20311;-49
2022/08/05 00:24:22;;;;;;;31.40;9.37;;;;;;;18.06;92.45;100337.22;4829927;29;20312;-48
2022/08/05 00:27:00;;;;;;;36.40;11.27;;;;;;;18.22;92.10;100323.28;4830384;29;20322;-51
2022/08/05 00:29:39;;;;;;;20.60;7.90;;;;;;;18.43;91.66;100330.22;4830929;29;20307;-50
2022/08/05 00:32:11;;;;;;;21.53;8.87;;;;;;;18.49;90.92;100311.38;4830937;29;20062;-51
2022/08/05 00:34:46;;;;;;;31.37;8.70;;;;;;;18.74;89.75;100323.41;4830895;29;20588;-52
2022/08/05 00:37:35;;;;;;;20.50;8.53;;;;;;;18.87;88.86;100327.22;4830796;29;20354;-48
2022/08/05 00:40:23;;;;;;;24.23;8.80;;;;;;;18.98;88.27;100315.22;4831036;29;20340;-48
2022/08/05 00:42:58;;;;;;;22.10;7.53;;;;;;;19.20;87.99;100323.81;4830791;29;20533;-48
2022/08/05 00:45:29;;;;;;;21.30;8.57;;;;;;;19.34;87.66;100326.56;4830777;29;20375;-48
2022/08/05 00:48:13;;;;;;;23.57;8.70;;;;;;;19.51;86.71;100330.16;4830467;29;20311;-49
2022/08/05 00:50:48;;;;;;;17.10;6.97;;;;;;;19.56;85.56;100344.03;4830567;29;20565;-49
2022/08/05 00:53:22;;;;;;;19.47;7.30;;;;;;;19.55;85.40;100337.03;4830422;29;20451;-49
2022/08/05 00:56:13;;;;;;;14.60;6.57;;;;;;;19.60;84.92;100340.28;4829017;29;20446;-48
2022/08/05 00:58:51;;;;;;;17.17;6.32;;;;;;;19.68;84.40;100338.09;4828184;29;20287;-50
2022/08/05 01:01:22;;;;;;;20.83;8.17;;;;;;;19.71;84.67;100337.94;4828897;29;20114;-48
2022/08/05 01:04:11;;;;;;;19.40;8.03;;;;;;;19.78;85.25;100333.19;4829535;29;20634;-49
2022/08/05 01:06:44;;;;;;;27.63;9.07;;;;;;;19.79;84.46;100338.41;4829623;29;20294;-48
2022/08/05 01:09:19;;;;;;;23.20;8.03;;;;;;;19.78;84.70;100344.63;4829298;29;20326;-48
2022/08/05 01:11:53;;;;;;;23.20;8.17;;;;;;;19.73;84.52;100348.47;4830022;29;20312;-48
2022/08/05 01:14:27;;;;;;;28.23;7.90;;;;;;;19.67;84.18;100352.31;4827431;29;20298;-48
2022/08/05 01:17:04;;;;;;;22.97;8.20;;;;;;;19.54;84.63;100351.19;4829550;29;20493;-49
2022/08/05 01:19:40;;;;;;;27.77;8.53;;;;;;;19.46;84.85;100359.53;4826546;29;20310;-49
2022/08/05 01:22:46;;;;;;;26.50;9.03;;;;;;;19.34;85.41;100350.41;4821116;29;20288;-46
2022/08/05 01:25:52;;;;;;;19.93;8.43;;;;;;;19.20;85.53;100363.53;4825927;29;20315;-48
2022/08/05 01:28:31;;;;;;;28.67;8.57;;;;;;;19.10;85.77;100362.28;4809717;29;20487;-48
2022/08/05 01:31:22;;;;;;;21.20;9.17;;;;;;;19.02;86.15;100359.13;4825917;29;20465;-47
2022/08/05 01:34:03;;;;;;;22.03;8.70;;;;;;;18.90;86.94;100361.47;4825965;29;20283;-47
2022/08/05 01:36:50;;;;;;;26.83;9.67;;;;;;;18.83;87.47;100356.56;4826274;29;20577;-47
2022/08/05 01:39:22;;;;;;;24.90;9.23;;;;;;;18.82;87.90;100358.38;4825339;29;20637;-47
2022/08/05 01:42:15;;;;;;;24.57;9.63;;;;;;;18.88;88.38;100358.03;4825987;29;20306;-46
2022/08/05 01:44:48;;;;;;;27.57;9.60;;;;;;;18.85;88.23;100352.91;4825965;29;20292;-47
2022/08/05 01:47:24;;;;;;;28.10;10.13;;;;;;;18.86;87.92;100357.25;4826510;29;20295;-47
2022/08/05 01:50:12;;;;;;;21.20;9.23;;;;;;;18.78;87.85;100356.78;4826106;29;20325;-48
2022/08/05 01:52:47;;;;;;;24.63;9.90;;;;;;;18.63;87.69;100352.22;4824738;29;20588;-48
2022/08/05 01:55:21;;;;;;;22.40;8.90;;;;;;;18.61;87.94;100356.72;4823268;29;20492;-49
2022/08/05 01:57:54;;;;;;;26.63;9.97;;;;;;;18.58;88.48;100360.38;4824568;29;20287;-49
2022/08/05 02:00:49;;;;;;;26.63;9.63;;;;;;;18.56;88.45;100350.78;4825128;29;20607;-47
2022/08/05 02:03:25;;;;;;;24.03;9.30;;;;;;;18.62;88.66;100356.66;4826041;29;20308;-49
2022/08/05 02:06:05;;;;;;;19.13;8.23;;;;;;;18.68;89.01;100352.84;4826617;29;20375;-49
2022/08/05 02:08:56;;;;;;;14.97;7.93;;;;;;;18.75;87.92;100348.97;4827700;29;20519;-52
2022/08/05 02:11:33;;;;;;;29.63;9.67;;;;;;;18.86;87.89;100349.31;4827320;29;20291;-47
2022/08/05 02:14:14;;;;;;;21.70;10.00;;;;;;;19.02;87.84;100340.59;4829451;29;20340;-47
2022/08/05 02:16:51;;;;;;;22.20;9.37;;;;;;;19.14;87.77;100332.91;4830013;29;20362;-49
2022/08/05 02:19:33;;;;;;;29.30;9.53;;;;;;;19.27;86.84;100350.81;4829965;29;20540;-48
2022/08/05 02:22:18;;;;;;;26.53;10.27;;;;;;;19.34;86.50;100350.41;4829162;29;20380;-49
2022/08/05 02:24:56;;;;;;;;;;;;;;;19.39;85.84;100348.41;4812304;29;20325;-49
2022/08/05 02:27:31;;;;;;;24.93;8.70;;;;;;;19.46;85.47;100337.50;4811854;29;19970;-48
2022/08/05 02:30:23;;;;;;;28.57;11.33;;;;;;;19.54;84.79;100328.19;4811479;29;20331;-48
2022/08/05 02:32:59;;;;;;;26.20;10.73;;;;;;;19.51;84.82;100303.66;4811896;29;20357;-49
2022/08/05 02:35:34;;;;;;;28.83;9.50;;;;;;;19.76;84.71;100325.28;4811612;29;20451;-47
2022/08/05 02:38:17;;;;;;;32.17;8.93;;;;;;;19.88;83.93;100333.53;4811372;29;20327;-48
2022/08/05 02:40:48;;;;;;;26.30;8.80;;;;;;;19.95;83.39;100329.63;4811356;29;20299;-50
2022/08/05 02:43:21;;;;;;;28.80;8.33;;;;;;;20.03;82.82;100332.72;4811393;29;20291;-50
2022/08/05 02:45:53;;;;;;;23.13;8.10;;;;;;;20.21;82.34;100325.53;4821798;29;20310;-52
2022/08/05 02:48:31;;;;;;;27.30;7.33;;;;;;;20.42;81.05;100307.56;4832741;29;20298;-47
2022/08/05 02:51:03;;;;;;;22.43;7.40;;;;;;;20.66;80.59;100298.22;4819099;29;20308;-49
2022/08/05 02:53:34;;;;;;;21.93;7.23;;;;;;;20.99;79.10;100306.94;4815093;29;20302;-50
2022/08/05 02:56:11;;;;;;;24.77;8.17;;;;;;;21.30;77.98;100308.66;4823727;29;20352;-49
2022/08/05 02:58:49;;;;;;;22.75;6.45;;;;;;;21.60;78.06;100310.44;4832613;29;20348;-49
2022/08/05 03:01:24;;;;;;;20.97;6.90;;;;;;;21.71;76.89;100287.50;4832676;29;20110;-47
2022/08/05 03:04:03;;;;;;;21.40;6.87;;;;;;;21.80;75.66;100304.72;4830909;29;20484;-48
2022/08/05 03:06:43;;;;;;;20.97;6.37;;;;;;;21.64;75.37;100306.59;4832299;29;20287;-49
2022/08/05 03:09:28;;;;;;;19.33;7.43;;;;;;;21.65;75.80;100295.03;4825260;29;20327;-49
2022/08/05 03:12:29;;;;;;;20.07;6.57;;;;;;;21.66;74.91;100302.06;4827802;29;20369;-50
2022/08/05 03:15:01;;;;;;;15.57;6.30;;;;;;;21.53;74.64;100297.50;4828398;29;20736;-47
2022/08/05 03:17:35;;;;;;;15.70;6.50;;;;;;;21.45;74.38;100297.13;4828136;29;20291;-49
2022/08/05 03:20:13;;;;;;;17.70;5.97;;;;;;;21.43;75.47;100291.03;4828384;29;20494;-49
2022/08/05 03:22:43;;;;;;;17.87;6.23;;;;;;;21.41;75.30;100287.59;4828185;29;20295;-49
2022/08/05 03:25:21;;;;;;;21.47;6.13;;;;;;;21.35;75.19;100282.66;4828665;29;20748;-48
2022/08/05 03:28:12;;;;;;;21.67;7.07;;;;;;;21.52;75.53;100279.84;4828268;29;20298;-49
2022/08/05 03:30:49;;;;;;;16.77;6.00;;;;;;;21.69;75.30;100284.13;4827569;29;20327;-49
2022/08/05 03:33:24;;;;;;;23.20;5.87;;;;;;;21.87;74.71;100279.44;4827636;29;20315;-48
2022/08/05 03:36:16;;;;;;;15.27;5.57;;;;;;;21.88;73.48;100286.47;4827023;29;20046;-49
2022/08/05 03:38:59;;;;;;;14.53;5.70;;;;;;;21.81;73.24;100278.97;4827480;29;20086;-48
2022/08/05 03:41:30;;;;;;;18.23;5.90;;;;;;;21.80;73.41;100283.44;4827662;29;20051;-49
2022/08/05 03:44:07;;;;;;;24.20;6.50;;;;;;;21.87;73.43;100284.78;4827539;29;20118;-47
2022/08/05 03:46:40;;;;;;;15.97;5.50;;;;;;;21.88;72.89;100277.63;4827086;29;20118;-50
2022/08/05 03:49:11;;;;;;;11.53;5.53;;;;;;;21.88;73.01;100269.66;4827141;29;20054;-48
2022/08/05 03:51:56;;;;;;;13.07;5.37;;;;;;;21.89;72.32;100288.19;4827009;29;20315;-49
2022/08/05 03:54:54;;;;;;;15.73;5.87;;;;;;;21.56;72.63;100231.78;4826739;29;20090;-47
2022/08/05 03:57:47;;;;;;;14.35;5.22;;;;;;;21.76;72.86;100265.97;4827927;29;20222;-48
2022/08/05 04:00:20;;;;;;;18.93;6.03;;;;;;;21.64;73.05;100283.56;4828281;29;20058;-52
2022/08/05 04:02:55;;;;;;;18.47;6.17;;;;;;;21.49;73.60;100269.41;4828050;29;20042;-48
2022/08/05 04:05:32;;;;;;;13.97;5.93;;;;;;;21.20;73.63;100257.00;4828241;29;20073;-47
2022/08/05 04:08:08;;;;;;;16.63;6.00;;;;;;;21.17;74.25;100289.06;4827974;29;20141;-52
2022/08/05 04:10:59;;;;;;;17.10;6.00;;;;;;;20.92;74.88;100285.22;4827760;29;20062;-52
2022/08/05 04:13:30;;;;;;;14.57;5.97;;;;;;;20.83;74.72;100288.41;4827774;29;20359;-49
2022/08/05 04:16:20;;;;;;;18.80;6.20;;;;;;;20.68;75.64;100287.50;4827742;29;20070;-49
2022/08/05 04:19:00;;;;;;;18.47;6.07;;;;;;;20.67;76.54;100286.66;4828045;29;20505;-48
2022/08/05 04:21:39;;;;;;;18.48;6.35;;;;;;;20.62;76.59;100294.03;4827531;29;20340;-49
2022/08/05 04:24:31;;;;;;;17.57;6.13;;;;;;;20.49;76.34;100292.97;4826180;29;20066;-49
2022/08/05 04:27:02;;;;;;;19.03;6.20;;;;;;;20.34;76.53;100288.53;4827825;29;20295;-48
2022/08/05 04:29:32;;;;;;;21.90;6.30;;;;;;;20.23;77.72;100287.34;4827654;29;20367;-51
2022/08/05 04:32:03;;;;;;;17.93;5.67;;;;;;;20.20;78.25;100282.22;4826729;29;20302;-50
2022/08/05 04:34:36;;;;;;;16.97;6.07;;;;;;;20.14;78.09;100287.84;4826649;29;20561;-50
2022/08/05 04:37:12;;;;;;;18.40;5.50;;;;;;;20.00;78.58;100280.69;4826541;29;20288;-48
2022/08/05 04:39:44;;;;;;;20.27;6.83;;;;;;;19.98;79.23;100292.31;4826008;29;21254;-49
2022/08/05 04:42:21;;;;;;;21.15;5.82;;;;;;;19.93;79.36;100294.38;4826472;29;20310;-47
2022/08/05 04:44:54;;;;;;;18.67;5.90;;;;;;;19.89;79.71;100292.81;4826145;29;20163;-51
2022/08/05 04:47:24;;;;;;;15.53;5.97;;;;;;;19.89;80.19;100298.13;4826681;29;20299;-48
2022/08/05 04:49:56;;;;;;;20.83;6.60;;;;;;;19.79;80.17;100289.81;4826697;29;20296;-49
2022/08/05 04:52:39;;;;;;;26.50;7.80;;;;;;;19.70;80.61;100296.47;4826385;29;20295;-49
2022/08/05 04:55:14;;;;;;;21.53;6.97;;;;;;;19.64;81.09;100287.94;4826370;29;20291;-52
2022/08/05 04:57:52;;;;;;;24.92;7.72;;;;;;;19.54;81.42;100287.59;4827070;29;20356;-46
2022/08/05 05:00:23;;;;;;;22.17;7.83;;;;;;;19.47;82.23;100286.19;4826110;29;20039;-52
2022/08/05 05:02:53;;;;;;;22.03;6.83;;;;;;;19.42;82.38;100278.50;4826766;29;20291;-47
2022/08/05 05:05:31;;;;;;;22.27;7.27;;;;;;;19.36;83.15;100269.06;4826159;29;20291;-51
2022/08/05 05:08:22;;;;;;;22.13;7.97;;;;;;;19.29;84.17;100261.53;4825497;29;20279;-49
2022/08/05 05:11:00;;;;;;;22.63;7.80;;;;;;;19.24;84.59;100253.81;4826107;29;20621;-49
2022/08/05 05:13:31;;;;;;;23.03;7.63;;;;;;;19.19;84.69;100253.19;4826140;29;20298;-51
2022/08/05 05:16:12;;;;;;;20.63;7.83;;;;;;;19.18;85.08;100254.16;4825880;29;20541;-48
2022/08/05 05:18:44;;;;;;;20.03;7.67;;;;;;;19.13;84.95;100256.19;4825972;29;20374;-51
2022/08/05 05:21:34;;;;;;;19.60;7.33;;;;;;;19.06;85.02;100254.78;4825927;29;20284;-48
2022/08/05 05:24:07;;;;;;;24.33;8.10;;;;;;;19.05;85.74;100263.69;4826555;29;20303;-48
2022/08/05 05:26:39;;;;;;;21.87;8.20;;;;;;;19.03;86.12;100252.31;4826585;29;20298;-48
2022/08/05 05:29:15;;;;;;;32.53;9.43;;;;;;;19.02;86.44;100259.41;4826758;29;20392;-52
2022/08/05 05:31:48;;;;;;;22.60;8.73;;;;;;;19.01;86.30;100257.66;4826661;29;20379;-48
2022/08/05 05:34:19;;;;;;;30.20;9.23;;;;;;;18.98;86.64;100251.69;4826666;29;20307;-52
2022/08/05 05:36:56;;;;;;;25.30;8.70;;;;;;;18.96;86.15;100252.59;4826631;29;20469;-50
2022/08/05 05:39:27;;;;;;;23.13;8.37;;;;;;;18.85;86.03;100252.31;4826325;29;20352;-48
2022/08/05 05:42:06;;;;;;;23.13;8.37;;;;;;;18.80;86.50;100258.78;4825588;29;20681;-49
2022/08/05 05:44:37;;;;;;;27.23;8.30;;;;;;;18.70;86.79;100253.06;4825640;29;20356;-49
2022/08/05 05:47:14;;;;;;;19.93;8.37;;;;;;;18.67;87.52;100253.19;4825843;29;20653;-52
2022/08/05 05:49:50;;;;;;;26.87;8.47;;;;;;;18.64;87.84;100250.69;4826393;29;20302;-49
2022/08/05 05:52:30;;;;;;;23.63;8.47;;;;;;;18.57;87.61;100255.47;4825190;29;20347;-47
2022/08/05 05:55:09;;;;;;;19.57;7.73;;;;;;;18.49;88.34;100245.22;4826499;29;20905;-48
2022/08/05 05:57:46;;;;;;;28.67;8.20;;;;;;;18.48;89.13;100246.19;4825140;29;20542;-50
2022/08/05 06:00:21;;;;;;;;;;;;;;;18.53;89.51;100252.09;4826648;29;20344;-48
2022/08/05 06:03:05;;;;;;;27.03;8.37;;;;;;;18.53;89.89;100241.50;4826710;29;19929;-49
2022/08/05 06:05:57;;;;;;;23.53;8.50;;;;;;;18.52;90.51;100245.09;4825742;29;20299;-49
2022/08/05 06:08:28;;;;;;;21.63;8.13;;;;;;;18.52;90.77;100250.41;4825234;29;20371;-48
2022/08/05 06:11:02;;;;;;;26.27;8.00;;;;;;;18.41;90.94;100228.88;4825425;29;20465;-47
2022/08/05 06:13:36;;;;;;;23.27;8.97;;;;;;;18.41;90.92;100242.13;4825623;29;20295;-48
2022/08/05 06:16:25;;;;;;;22.53;8.00;;;;;;;18.42;90.96;100253.53;4824724;29;20461;-47
2022/08/05 06:19:06;;;;;;;28.30;8.53;;;;;;;18.33;91.31;100246.94;4828094;29;20302;-47
2022/08/05 06:21:38;;;;;;;27.07;8.33;;;;;;;18.32;91.27;100247.84;4829721;29;20841;-48
2022/08/05 06:24:20;;;;;;;23.87;8.10;;;;;;;18.31;91.54;100251.44;4828530;29;20299;-50
2022/08/05 06:26:55;;;;;;;23.70;8.90;;;;;;;18.30;91.74;100255.03;4828502;29;20359;-47
2022/08/05 06:29:28;;;;;;;24.30;8.70;;;;;;;18.36;92.12;100249.41;4828980;29;20359;-48
2022/08/05 06:32:19;;;;;;;24.40;8.17;;;;;;;18.24;92.02;100223.56;4828472;29;20315;-46
2022/08/05 06:34:57;;;;;;;18.52;8.20;;;;;;;18.37;92.07;100245.88;4828702;29;20372;-49
2022/08/05 06:37:34;;;;;;;21.53;7.83;;;;;;;18.36;91.80;100244.13;4827972;29;20051;-47
2022/08/05 06:40:25;;;;;;;22.10;8.33;;;;;;;18.37;91.90;100243.22;4828169;29;20284;-47
2022/08/05 06:43:00;;;;;;;24.57;9.17;;;;;;;18.38;92.29;100241.41;4828999;29;20302;-46
2022/08/05 06:45:33;;;;;;;23.03;8.00;;;;;;;18.39;92.21;100248.41;4827281;29;20560;-48
2022/08/05 06:48:23;;;;;;;20.30;7.90;;;;;;;18.37;92.38;100251.16;4827937;29;20296;-47
2022/08/05 06:51:14;;;;;;;21.93;7.57;;;;;;;18.40;92.18;100253.63;4827675;29;20390;-46
2022/08/05 06:53:58;;;;;;;22.03;7.37;;;;;;;18.39;92.07;100257.19;4828034;29;20367;-45
2022/08/05 06:56:31;;;;;;;22.90;7.10;;;;;;;18.42;91.85;100267.66;4828537;29;20284;-48
2022/08/05 06:59:04;;;;;;;16.60;7.10;;;;;;;18.40;91.53;100251.00;4829765;29;20457;-47
2022/08/05 07:01:40;;;;;;;23.47;7.40;;;;;;;18.42;91.73;100254.44;4829082;29;20507;-48
2022/08/05 07:04:11;;;;;;;23.00;7.33;;;;;;;18.43;91.68;100253.47;4828836;29;20397;-47
2022/08/05 07:06:42;;;;;;;30.20;7.90;;;;;;;18.45;91.75;100248.97;4828167;29;20805;-51
2022/08/05 07:09:13;;;;;;;20.20;8.23;;;;;;;18.51;91.66;100247.81;4828589;29;20302;-50
2022/08/05 07:11:44;;;;;;;24.47;8.97;;;;;;;18.53;91.45;100261.81;4828888;29;20387;-48
2022/08/05 07:17:09;;;;;;;24.57;8.40;;;;;;;18.58;91.74;100258.97;4827078;29;20360;-48
2022/08/05 07:20:00;;;;;;;24.83;9.50;;;;;;;18.65;91.71;100265.66;4828643;29;20275;-47
2022/08/05 07:22:51;;;;;;;24.90;8.30;;;;;;;18.70;91.26;100263.66;4828300;29;20299;-49
2022/08/05 07:25:21;;;;;;;28.20;7.93;;;;;;;18.72;90.42;100261.75;4828265;29;20328;-47
2022/08/05 07:28:12;;;;;;;23.20;7.13;;;;;;;18.90;90.29;100260.88;4826661;29;20296;-46
2022/08/05 07:30:46;;;;;;;20.67;7.97;;;;;;;19.05;90.23;100263.69;4827057;29;20298;-48
2022/08/05 07:33:24;;;;;;;24.90;8.00;;;;;;;19.09;89.25;100276.66;4828231;29;20327;-47
2022/08/05 07:36:06;;;;;;;23.47;7.30;;;;;;;19.15;88.76;100267.56;4828052;29;20298;-48
2022/08/05 07:38:50;;;;;;;21.93;8.17;;;;;;;19.31;88.33;100268.47;4828129;29;20295;-47
2022/08/05 07:41:25;;;;;;;38.97;17.10;;;;;;;19.36;87.93;100258.47;4828157;29;20291;-47
2022/08/05 07:44:15;;;;;;;34.27;18.20;;;;;;;19.59;87.56;100265.22;4828270;29;20314;-45
2022/08/05 07:46:49;;;;;;;33.53;16.77;;;;;;;19.56;86.75;100248.59;4826144;29;20311;-48
2022/08/05 07:49:21;;;;;;;29.97;12.10;;;;;;;19.70;85.79;100271.75;4826695;29;20874;-50
2022/08/05 07:51:52;;;;;;;30.63;10.20;;;;;;;19.70;85.12;100269.97;4826997;29;20300;-50
2022/08/05 07:54:26;;;;;;;23.20;8.67;;;;;;;19.69;85.28;100265.59;4825827;29;20308;-53
2022/08/05 07:57:02;;;;;;;27.27;9.03;;;;;;;19.74;85.15;100268.84;4826119;29;20526;-47
2022/08/05 07:59:53;;;;;;;23.37;8.10;;;;;;;19.74;84.81;100270.63;4826935;29;20288;-53
2022/08/05 08:02:28;;;;;;;21.33;7.40;;;;;;;19.78;84.74;100275.69;4827269;29;20359;-48
2022/08/05 08:05:20;;;;;;;27.60;7.27;;;;;;;19.81;84.18;100262.25;4827006;29;20282;-45
2022/08/05 08:07:55;;;;;;;25.57;6.87;;;;;;;19.78;83.28;100270.41;4827229;29;20328;-48
2022/08/05 08:10:29;;;;;;;23.97;6.90;;;;;;;19.63;82.90;100255.28;4826588;29;20461;-48
2022/08/05 08:13:01;;;;;;;25.37;7.00;;;;;;;19.73;82.93;100267.13;4826814;29;20378;-47
2022/08/05 08:15:32;;;;;;;21.77;7.37;;;;;;;19.67;81.83;100240.06;4826813;29;20291;-47
2022/08/05 08:18:23;;;;;;;19.47;7.60;;;;;;;19.72;81.85;100238.94;4826808;29;20275;-51
2022/08/05 08:20:56;;;;;;;20.50;7.07;;;;;;;19.75;81.43;100252.00;4826082;29;20347;-47
2022/08/05 08:23:32;;;;;;;21.77;8.87;;;;;;;19.68;81.61;100253.28;4826488;29;20355;-49
2022/08/05 08:26:23;;;;;;;24.70;12.53;;;;;;;19.68;81.82;100252.44;4826198;29;20303;-46
2022/08/05 08:28:59;;;;;;;40.37;19.90;;;;;;;19.70;81.80;100243.44;4824977;29;20296;-46
2022/08/05 08:31:51;;;;;;;50.60;24.17;;;;;;;19.64;81.63;100251.69;4826714;29;20499;-48
2022/08/05 08:34:23;;;;;;;52.93;27.07;;;;;;;19.76;81.36;100247.56;4826879;29;20312;-49
2022/08/05 08:37:03;;;;;;;46.43;23.40;;;;;;;19.66;80.90;100247.16;4827549;29;20431;-46
2022/08/05 08:39:34;;;;;;;35.43;17.43;;;;;;;19.50;80.99;100249.81;4827918;29;20291;-49
2022/08/05 08:42:09;;;;;;;29.50;12.93;;;;;;;19.38;81.68;100250.44;4825581;29;20299;-47
2022/08/05 08:45:00;;;;;;;33.90;13.57;;;;;;;19.24;81.91;100253.81;4827080;29;20292;-49
2022/08/05 08:47:52;;;;;;;23.67;9.13;;;;;;;19.03;82.65;100224.03;4826076;29;20366;-49
2022/08/05 08:50:44;;;;;;;23.90;8.23;;;;;;;19.13;82.37;100245.59;4827016;29;20294;-48
2022/08/05 08:53:40;;;;;;;20.33;9.13;;;;;;;19.11;82.75;100239.50;4826948;29;20319;-50
2022/08/05 08:56:14;;;;;;;33.25;9.32;;;;;;;19.04;82.70;100222.22;4826907;29;20306;-50
2022/08/05 08:58:46;;;;;;;28.77;11.97;;;;;;;19.19;82.40;100253.19;4827074;29;20069;-48
2022/08/05 09:01:18;;;;;;;30.27;12.57;;;;;;;19.14;82.71;100255.25;4827011;29;20280;-50
2022/08/05 09:03:51;;;;;;;29.63;11.30;;;;;;;19.13;82.95;100262.34;4826451;29;20328;-48
2022/08/05 09:06:27;;;;;;;28.53;9.77;;;;;;;19.17;82.81;100274.50;4826922;29;20284;-49
2022/08/05 09:09:02;;;;;;;26.77;9.00;;;;;;;19.13;82.77;100272.06;4826620;29;20307;-51
2022/08/05 09:11:35;;;;;;;24.87;10.53;;;;;;;19.11;83.14;100273.94;4827250;29;20358;-47
2022/08/05 09:14:23;;;;;;;24.30;10.60;;;;;;;19.09;83.68;100270.50;4826690;29;20302;-48
2022/08/05 09:17:13;;;;;;;26.03;11.73;;;;;;;19.09;83.55;100275.81;4826013;29;20568;-47
2022/08/05 09:20:06;;;;;;;30.00;12.67;;;;;;;18.91;83.95;100278.47;4824891;29;20314;-49
2022/08/05 09:23:05;;;;;;;27.53;9.43;;;;;;;18.82;84.59;100272.78;4826607;29;20581;-47
2022/08/05 09:25:41;;;;;;;25.57;10.07;;;;;;;18.70;84.93;100274.22;4826749;29;20327;-48
2022/08/05 09:28:33;;;;;;;24.10;10.00;;;;;;;18.37;85.23;100240.56;4826472;29;20300;-49
2022/08/05 09:31:06;;;;;;;39.30;22.33;;;;;;;18.39;85.84;100265.13;4826884;29;20315;-46
2022/08/05 09:33:58;;;;;;;65.83;35.33;;;;;;;18.34;86.22;100272.44;4826358;29;20312;-51
2022/08/05 09:36:44;;;;;;;46.93;20.60;;;;;;;18.10;86.54;100248.91;4825893;29;20692;-49
2022/08/05 09:39:25;;;;;;;23.50;13.13;;;;;;;18.18;86.84;100267.03;4826419;29;20661;-46
2022/08/05 09:42:19;;;;;;;26.23;10.10;;;;;;;18.12;87.44;100275.25;4826448;29;20296;-50
2022/08/05 09:44:57;;;;;;;23.27;7.70;;;;;;;18.07;87.77;100270.22;4826641;29;20303;-46
2022/08/05 09:47:48;;;;;;;27.10;7.90;;;;;;;18.00;87.81;100268.78;4826457;29;20317;-46
2022/08/05 09:50:36;;;;;;;32.87;8.23;;;;;;;17.97;88.17;100263.63;4826370;29;20284;-47
2022/08/05 09:53:13;;;;;;;30.05;9.95;;;;;;;17.96;88.25;100272.47;4825905;29;20319;-47
2022/08/05 09:56:04;;;;;;;28.23;11.10;;;;;;;17.87;88.88;100268.50;4826602;29;20074;-46
2022/08/05 09:58:56;;;;;;;32.03;11.33;;;;;;;17.87;89.02;100271.13;4825388;29;20630;-47
2022/08/05 10:01:27;;;;;;;26.77;10.40;;;;;;;17.79;89.21;100277.66;4826374;29;20279;-47
2022/08/05 10:04:03;;;;;;;24.17;9.87;;;;;;;17.62;89.34;100255.53;4826105;29;20298;-48
2022/08/05 10:06:40;;;;;;;37.70;11.57;;;;;;;17.76;89.68;100283.94;4826153;29;20480;-47
2022/08/05 10:09:27;;;;;;;21.87;8.53;;;;;;;17.67;89.88;100279.94;4825779;29;20380;-46
2022/08/05 10:12:14;;;;;;;29.43;7.60;;;;;;;17.60;90.25;100286.44;4825902;29;20352;-49
2022/08/05 10:15:17;;;;;;;23.13;8.35;;;;;;;17.57;90.41;100286.59;4826186;29;20612;-49
2022/08/05 10:18:10;;;;;;;27.50;8.13;;;;;;;17.60;90.83;100283.78;4826068;29;20355;-46
2022/08/05 10:20:44;;;;;;;17.30;7.37;;;;;;;17.44;91.27;100264.25;4826093;29;20413;-49
2022/08/05 10:23:19;;;;;;;25.33;7.00;;;;;;;17.63;91.36;100286.28;4826110;29;20296;-48
2022/08/05 10:26:11;;;;;;;25.33;7.90;;;;;;;17.59;91.55;100281.22;4825975;29;20298;-46
2022/08/05 10:28:44;;;;;;;23.20;7.47;;;;;;;17.58;91.79;100280.34;4825989;29;20359;-48
2022/08/05 10:31:18;;;;;;;22.37;7.33;;;;;;;17.40;91.95;100268.84;4825979;29;20299;-46
2022/08/05 10:34:09;;;;;;;25.87;8.27;;;;;;;17.38;92.04;100264.56;4825413;29;20322;-47
2022/08/05 10:36:41;;;;;;;27.47;8.13;;;;;;;17.46;92.26;100288.84;4825934;29;20500;-47
2022/08/05 10:39:17;;;;;;;26.20;8.07;;;;;;;17.48;92.57;100292.25;4825068;29;20309;-47
2022/08/05 10:42:14;;;;;;;22.67;8.00;;;;;;;17.43;92.62;100302.19;4824946;29;20611;-49
2022/08/05 10:44:48;;;;;;;28.08;9.00;;;;;;;17.40;92.40;100294.41;4824550;29;20498;-48
2022/08/05 10:47:20;;;;;;;23.97;8.97;;;;;;;17.45;92.33;100303.81;4824759;29;20060;-48
2022/08/05 10:50:10;;;;;;;21.20;8.27;;;;;;;17.40;92.15;100300.53;4824826;29;20288;-53
2022/08/05 10:53:01;;;;;;;23.30;7.57;;;;;;;17.30;91.75;100308.91;4824398;29;20314;-52
2022/08/05 10:55:32;;;;;;;23.83;7.43;;;;;;;17.18;91.69;100305.88;4824827;29;20316;-50
2022/08/05 10:58:23;;;;;;;24.97;6.93;;;;;;;17.17;91.77;100319.13;4825316;29;20303;-52
2022/08/05 11:01:14;;;;;;;23.90;7.33;;;;;;;17.13;92.04;100313.16;4825130;29;20307;-49
2022/08/05 11:04:10;;;;;;;16.50;7.30;;;;;;;17.08;92.03;100320.41;4825391;29;20280;-51
2022/08/05 11:07:07;;;;;;;19.33;6.80;;;;;;;17.05;92.18;100325.81;4828280;29;20287;-53
2022/08/05 11:09:40;;;;;;;22.37;6.97;;;;;;;17.01;92.28;100324.22;4828838;29;20313;-50
2022/08/05 11:12:45;;;;;;;17.97;6.87;;;;;;;17.02;92.19;100332.09;4828724;29;20355;-49
2022/08/05 11:15:27;;;;;;;26.00;6.43;;;;;;;16.95;92.16;100329.78;4805869;29;20307;-46
2022/08/05 11:18:32;;;;;;;19.33;6.83;;;;;;;16.97;92.31;100334.06;4828536;29;20052;-49
2022/08/05 11:21:05;;;;;;;18.80;6.20;;;;;;;16.97;92.35;100335.81;4828493;29;20477;-51
2022/08/05 11:23:51;;;;;;;22.13;7.47;;;;;;;16.94;92.26;100335.97;4828711;29;20374;-49
2022/08/05 11:26:42;;;;;;;20.23;6.97;;;;;;;16.88;92.62;100338.88;4828654;29;20320;-48
2022/08/05 11:29:39;;;;;;;26.07;7.40;;;;;;;16.89;92.41;100341.41;4828201;29;20302;-51
2022/08/05 11:32:26;;;;;;;23.00;6.60;;;;;;;16.78;92.45;100318.13;4827372;29;20307;-49
2022/08/05 11:34:57;;;;;;;27.90;7.13;;;;;;;16.86;92.36;100340.69;4828243;29;20323;-52
2022/08/05 11:38:06;;;;;;;23.73;7.30;;;;;;;16.83;92.41;100335.56;4828365;29;20341;-53
2022/08/05 11:41:02;;;;;;;25.67;8.40;;;;;;;16.75;92.45;100334.06;4828506;29;20445;-48
2022/08/05 11:43:59;;;;;;;22.60;7.13;;;;;;;16.59;92.32;100306.56;4828200;29;20050;-52
2022/08/05 11:46:38;;;;;;;23.57;6.77;;;;;;;16.75;92.40;100328.78;4828190;29;20300;-51
2022/08/05 11:49:27;;;;;;;24.43;7.30;;;;;;;16.76;92.74;100335.75;4828050;29;20697;-48
2022/08/05 11:52:03;;;;;;;24.77;7.97;;;;;;;16.77;92.14;100348.06;4828322;29;20298;-49
2022/08/05 11:54:40;;;;;;;21.07;7.37;;;;;;;16.77;91.93;100337.50;4828168;29;20315;-49
2022/08/05 11:57:30;;;;;;;31.47;8.83;;;;;;;16.66;91.67;100329.13;4828099;29;20775;-48
2022/08/05 12:00:30;;;;;;;22.63;7.10;;;;;;;16.66;91.79;100338.84;4827735;29;20581;-47
2022/08/05 12:03:19;;;;;;;27.07;7.40;;;;;;;16.65;91.85;100339.75;4828196;29;20333;-48
2022/08/05 12:06:01;;;;;;;21.83;7.00;;;;;;;16.63;91.71;100339.81;4827959;29;20287;-49
2022/08/05 12:08:44;;;;;;;29.13;7.70;;;;;;;16.61;91.66;100336.38;4828122;29;20284;-48
2022/08/05 12:11:21;;;;;;;24.83;8.67;;;;;;;16.53;91.41;100339.34;4827901;29;20608;-49
2022/08/05 12:14:00;;;;;;;21.33;7.90;;;;;;;16.13;91.53;100276.75;4827606;29;20307;-50
2022/08/05 12:16:35;;;;;;;28.40;10.77;;;;;;;16.38;91.20;100340.78;4827621;29;20303;-51
2022/08/05 12:19:09;;;;;;;31.43;11.87;;;;;;;16.32;91.03;100335.75;4825789;29;20318;-50